createdAt,value
2018-03-02T00:02:26.138Z,-1.60
2018-03-02T00:04:54.949Z,-1.60
2018-03-02T00:07:24.098Z,-1.70
2018-03-02T00:09:54.006Z,-1.70
2018-03-02T00:12:23.320Z,-1.70
2018-03-02T00:14:52.736Z,-1.70
2018-03-02T00:17:22.257Z,-1.80
2018-03-02T00:19:51.702Z,-1.70
2018-03-02T00:22:21.939Z,-1.80
2018-03-02T00:24:51.064Z,-1.80
2018-03-02T00:27:20.517Z,-1.80
2018-03-02T00:29:50.114Z,-1.90
2018-03-02T00:32:19.453Z,-1.90
2018-03-02T00:34:48.875Z,-1.90
2018-03-02T00:37:18.804Z,-1.90
2018-03-02T00:39:48.204Z,-2.00
2018-03-02T00:42:17.607Z,-2.00
2018-03-02T00:44:47.034Z,-2.00
2018-03-02T00:47:16.439Z,-2.00
2018-03-02T00:49:45.595Z,-2.00
2018-03-02T00:52:15.787Z,-2.10
2018-03-02T00:54:44.930Z,-2.10
2018-03-02T00:57:15.125Z,-2.10
2018-03-02T00:59:44.531Z,-2.10
2018-03-02T01:02:13.956Z,-2.10
2018-03-02T01:04:43.380Z,-2.10
2018-03-02T01:07:12.550Z,-2.20
2018-03-02T01:09:41.707Z,-2.20
2018-03-02T01:12:11.612Z,-2.20
2018-03-02T01:14:41.035Z,-2.20
2018-03-02T01:17:10.444Z,-2.20
2018-03-02T01:19:39.866Z,-2.20
2018-03-02T01:22:08.998Z,-2.30
2018-03-02T01:24:38.219Z,-2.30
2018-03-02T01:27:08.411Z,-2.30
2018-03-02T01:29:37.550Z,-2.30
2018-03-02T01:32:07.234Z,-2.30
2018-03-02T01:34:36.163Z,-2.30
2018-03-02T01:37:05.564Z,-2.30
2018-03-02T01:39:34.796Z,-2.40
2018-03-02T01:42:04.703Z,-2.40
2018-03-02T01:44:34.099Z,-2.40
2018-03-02T01:47:03.508Z,-2.40
2018-03-02T01:49:32.931Z,-2.40
2018-03-02T01:52:02.331Z,-2.40
2018-03-02T01:54:31.747Z,-2.40
2018-03-02T01:57:01.154Z,-2.40
2018-03-02T01:59:30.320Z,-2.50
2018-03-02T02:02:00.282Z,-2.50
2018-03-02T02:04:30.492Z,-2.50
2018-03-02T02:07:00.068Z,-2.50
2018-03-02T02:09:29.538Z,-2.50
2018-03-02T02:11:59.740Z,-2.60
2018-03-02T02:14:29.204Z,-2.60
2018-03-02T02:16:59.561Z,-2.60
2018-03-02T02:19:28.721Z,-2.60
2018-03-02T02:21:58.158Z,-2.60
2018-03-02T02:24:28.353Z,-2.60
2018-03-02T02:26:58.256Z,-2.60
2018-03-02T02:29:27.701Z,-2.60
2018-03-02T02:31:57.156Z,-2.60
2018-03-02T02:34:27.523Z,-2.60
2018-03-02T02:36:56.498Z,-2.60
2018-03-02T02:39:25.961Z,-2.60
2018-03-02T02:41:55.088Z,-2.60
2018-03-02T02:44:24.504Z,-2.60
2018-03-02T02:46:53.915Z,-2.60
2018-03-02T02:49:23.336Z,-2.70
2018-03-02T02:51:52.743Z,-2.70
2018-03-02T02:54:23.690Z,-2.70
2018-03-02T02:56:53.112Z,-2.70
2018-03-02T02:59:22.289Z,-2.70
2018-03-02T03:01:51.753Z,-2.70
2018-03-02T03:04:22.009Z,-2.80
2018-03-02T03:06:51.439Z,-2.80
2018-03-02T03:09:20.260Z,-2.80
2018-03-02T03:11:49.400Z,-2.80
2018-03-02T03:14:18.844Z,-2.80
2018-03-02T03:16:49.053Z,-2.90
2018-03-02T03:19:18.462Z,-2.90
2018-03-02T03:21:47.560Z,-2.90
2018-03-02T03:24:16.976Z,-2.90
2018-03-02T03:26:46.561Z,-2.90
2018-03-02T03:29:15.974Z,-3.00
2018-03-02T03:31:45.132Z,-2.90
2018-03-02T03:34:14.574Z,-3.00
2018-03-02T03:36:43.718Z,-3.00
2018-03-02T03:39:13.137Z,-3.00
2018-03-02T03:41:42.582Z,-3.00
2018-03-02T03:44:12.485Z,-3.00
2018-03-02T03:46:41.946Z,-3.10
2018-03-02T03:49:12.129Z,-3.10
2018-03-02T03:51:41.575Z,-3.10
2018-03-02T03:54:11.058Z,-3.10
2018-03-02T03:56:40.195Z,-3.10
2018-03-02T03:59:09.341Z,-3.10
2018-03-02T04:01:38.766Z,-3.10
2018-03-02T04:04:07.890Z,-3.10
2018-03-02T04:06:37.301Z,-3.10
2018-03-02T04:09:06.763Z,-3.10
2018-03-02T04:11:36.184Z,-3.10
2018-03-02T04:14:06.355Z,-3.10
2018-03-02T04:16:35.518Z,-3.10
2018-03-02T04:19:04.935Z,-3.10
2018-03-02T04:21:34.353Z,-3.10
2018-03-02T04:24:03.754Z,-3.10
2018-03-02T04:26:33.712Z,-3.10
2018-03-02T04:29:03.872Z,-3.10
2018-03-02T04:31:33.064Z,-3.10
2018-03-02T04:34:02.489Z,-3.10
2018-03-02T04:36:31.615Z,-3.10
2018-03-02T04:39:01.041Z,-3.10
2018-03-02T04:41:30.664Z,-3.10
2018-03-02T04:44:00.098Z,-3.20
2018-03-02T04:46:29.529Z,-3.10
2018-03-02T04:48:58.662Z,-3.20
2018-03-02T04:51:27.837Z,-3.20
2018-03-02T04:53:57.756Z,-3.20
2018-03-02T04:56:27.201Z,-3.20
2018-03-02T04:58:57.442Z,-3.20
2018-03-02T05:01:26.228Z,-3.20
2018-03-02T05:03:56.403Z,-3.20
2018-03-02T05:06:25.545Z,-3.20
2018-03-02T05:08:56.497Z,-3.30
2018-03-02T05:11:26.564Z,-3.30
2018-03-02T05:13:56.772Z,-3.30
2018-03-02T05:16:26.976Z,-3.30
2018-03-02T05:18:56.446Z,-3.30
2018-03-02T05:21:26.636Z,-3.30
2018-03-02T05:23:56.089Z,-3.30
2018-03-02T05:26:25.240Z,-3.30
2018-03-02T05:28:54.388Z,-3.30
2018-03-02T05:31:23.860Z,-3.40
2018-03-02T05:33:53.262Z,-3.40
2018-03-02T05:36:22.708Z,-3.40
2018-03-02T05:38:52.445Z,-3.40
2018-03-02T05:41:21.880Z,-3.40
2018-03-02T05:43:52.118Z,-3.50
2018-03-02T05:46:21.682Z,-3.50
2018-03-02T05:48:51.177Z,-3.50
2018-03-02T05:51:20.619Z,-3.50
2018-03-02T05:53:50.008Z,-3.50
2018-03-02T05:56:19.445Z,-3.50
2018-03-02T05:58:48.444Z,-3.50
2018-03-02T06:01:17.854Z,-3.60
2018-03-02T06:03:47.383Z,-3.50
2018-03-02T06:06:16.455Z,-3.60
2018-03-02T06:08:45.908Z,-3.60
2018-03-02T06:11:15.350Z,-3.60
2018-03-02T06:13:44.788Z,-3.60
2018-03-02T06:16:13.928Z,-3.60
2018-03-02T06:18:43.379Z,-3.70
2018-03-02T06:21:13.081Z,-3.70
2018-03-02T06:23:42.523Z,-3.70
2018-03-02T06:26:12.442Z,-3.70
2018-03-02T06:28:41.516Z,-3.70
2018-03-02T06:31:10.660Z,-3.70
2018-03-02T06:33:39.810Z,-3.70
2018-03-02T06:36:10.178Z,-3.80
2018-03-02T06:38:39.644Z,-3.80
2018-03-02T06:41:09.051Z,-3.70
2018-03-02T06:43:38.487Z,-3.70
2018-03-02T06:46:08.662Z,-3.70
2018-03-02T06:48:38.071Z,-3.80
2018-03-02T06:51:07.490Z,-3.70
2018-03-02T06:53:36.900Z,-3.70
2018-03-02T06:56:06.314Z,-3.70
2018-03-02T06:58:35.796Z,-3.70
2018-03-02T07:01:05.971Z,-3.70
2018-03-02T07:03:35.396Z,-3.70
2018-03-02T07:06:04.520Z,-3.70
2018-03-02T07:08:33.808Z,-3.70
2018-03-02T07:11:03.330Z,-3.60
2018-03-02T07:13:32.725Z,-3.60
2018-03-02T07:16:02.154Z,-3.50
2018-03-02T07:18:31.246Z,-3.50
2018-03-02T07:21:00.739Z,-3.50
2018-03-02T07:23:30.953Z,-3.40
2018-03-02T07:26:01.410Z,-3.30
2018-03-02T07:28:30.801Z,-3.40
2018-03-02T07:31:00.260Z,-3.30
2018-03-02T07:33:29.677Z,-3.30
2018-03-02T07:35:59.106Z,-3.20
2018-03-02T07:38:28.543Z,-3.20
2018-03-02T07:40:57.970Z,-3.20
2018-03-02T07:43:27.921Z,-3.10
2018-03-02T07:45:58.116Z,-3.10
2018-03-02T07:48:27.212Z,-3.10
2018-03-02T07:50:56.638Z,-3.10
2018-03-02T07:53:26.566Z,-3.00
2018-03-02T07:55:55.985Z,-3.00
2018-03-02T07:58:25.415Z,-3.00
2018-03-02T08:00:54.519Z,-3.00
2018-03-02T08:03:23.601Z,-2.90
2018-03-02T08:05:52.754Z,-2.90
2018-03-02T08:08:22.960Z,-2.80
2018-03-02T08:10:52.409Z,-2.80
2018-03-02T08:13:22.633Z,-2.70
2018-03-02T08:15:52.246Z,-2.70
2018-03-02T08:18:21.662Z,-2.70
2018-03-02T08:20:50.898Z,-2.60
2018-03-02T08:23:21.176Z,-2.50
2018-03-02T08:25:50.303Z,-2.60
2018-03-02T08:28:19.727Z,-2.50
2018-03-02T08:30:50.663Z,-2.40
2018-03-02T08:33:20.112Z,-2.40
2018-03-02T08:35:49.236Z,-2.40
2018-03-02T08:38:18.664Z,-2.40
2018-03-02T08:40:47.899Z,-2.30
2018-03-02T08:43:17.312Z,-2.30
2018-03-02T08:45:46.456Z,-2.30
2018-03-02T08:48:16.369Z,-2.20
2018-03-02T08:50:45.797Z,-2.20
2018-03-02T08:53:15.226Z,-2.10
2018-03-02T08:55:44.636Z,-2.10
2018-03-02T08:58:14.057Z,-2.00
2018-03-02T09:00:44.246Z,-1.90
2018-03-02T09:03:13.636Z,-1.90
2018-03-02T09:05:43.101Z,-1.90
2018-03-02T09:08:12.596Z,-1.80
2018-03-02T09:10:42.212Z,-1.80
2018-03-02T09:13:11.354Z,-1.70
2018-03-02T09:15:40.443Z,-1.60
2018-03-02T09:18:10.373Z,-1.50
2018-03-02T09:20:39.524Z,-1.50
2018-03-02T09:23:09.684Z,-1.30
2018-03-02T09:25:39.140Z,-1.30
2018-03-02T09:28:08.563Z,-1.10
2018-03-02T09:30:39.489Z,-0.90
2018-03-02T09:33:08.619Z,-0.90
2018-03-02T09:35:38.104Z,-0.70
2018-03-02T09:38:07.616Z,-0.60
2018-03-02T09:40:36.961Z,-0.60
2018-03-02T09:43:06.372Z,-0.50
2018-03-02T09:45:35.807Z,-0.40
2018-03-02T09:48:05.693Z,-0.30
2018-03-02T09:50:34.550Z,-0.30
2018-03-02T09:53:04.404Z,-0.20
2018-03-02T09:55:33.809Z,-0.20
2018-03-02T09:58:02.959Z,-0.10
2018-03-02T10:00:32.182Z,-0.10
2018-03-02T10:03:02.091Z,0.10
2018-03-02T10:05:31.977Z,0.20
2018-03-02T10:08:01.415Z,0.20
2018-03-02T10:10:30.818Z,0.30
2018-03-02T10:13:00.246Z,0.40
2018-03-02T10:15:29.655Z,0.60
2018-03-02T10:17:59.087Z,0.70
2018-03-02T10:20:28.704Z,0.80
2018-03-02T10:22:58.167Z,0.80
2018-03-02T10:25:28.332Z,0.90
2018-03-02T10:27:57.765Z,0.90
2018-03-02T10:30:26.859Z,1.00
2018-03-02T10:32:56.328Z,1.00
2018-03-02T10:35:25.665Z,1.00
2018-03-02T10:37:56.008Z,1.00
2018-03-02T10:40:25.121Z,0.90
2018-03-02T10:42:54.558Z,0.90
2018-03-02T10:45:23.974Z,1.00
2018-03-02T10:47:53.213Z,0.90
2018-03-02T10:50:23.597Z,1.00
2018-03-02T10:52:52.997Z,0.90
2018-03-02T10:55:22.440Z,1.00
2018-03-02T10:57:51.844Z,1.00
2018-03-02T11:00:26.750Z,1.00
2018-03-02T11:02:56.532Z,1.00
2018-03-02T11:05:32.360Z,1.00
2018-03-02T11:08:02.547Z,1.00
2018-03-02T11:10:31.973Z,1.00
2018-03-02T11:13:01.386Z,1.00
2018-03-02T11:15:31.282Z,1.00
2018-03-02T11:18:00.440Z,1.00
2018-03-02T11:20:29.865Z,1.00
2018-03-02T11:22:59.037Z,1.00
2018-03-02T11:25:28.481Z,1.00
2018-03-02T11:27:57.913Z,1.00
2018-03-02T11:30:28.143Z,1.10
2018-03-02T11:32:58.322Z,1.10
2018-03-02T11:35:27.460Z,1.10
2018-03-02T11:37:57.054Z,1.20
2018-03-02T11:40:25.880Z,1.20
2018-03-02T11:42:55.294Z,1.30
2018-03-02T11:45:24.887Z,1.30
2018-03-02T11:47:54.399Z,1.40
2018-03-02T11:50:24.562Z,1.50
2018-03-02T11:52:54.027Z,1.50
2018-03-02T11:55:23.482Z,1.60
2018-03-02T11:57:53.045Z,1.70
2018-03-02T12:00:23.115Z,1.70
2018-03-02T12:02:52.525Z,1.70
2018-03-02T12:05:22.001Z,1.80
2018-03-02T12:07:51.852Z,1.90
2018-03-02T12:10:21.303Z,1.90
2018-03-02T12:12:50.958Z,2.00
2018-03-02T12:15:21.357Z,2.20
2018-03-02T12:17:50.929Z,2.20
2018-03-02T12:20:21.100Z,2.20
2018-03-02T12:22:49.900Z,2.20
2018-03-02T12:25:20.034Z,2.30
2018-03-02T12:27:49.428Z,2.30
2018-03-02T12:30:18.595Z,2.30
2018-03-02T12:32:48.452Z,2.40
2018-03-02T12:35:17.876Z,2.30
2018-03-02T12:37:47.278Z,2.40
2018-03-02T12:40:16.774Z,2.40
2018-03-02T12:42:47.011Z,2.50
2018-03-02T12:45:17.180Z,2.50
2018-03-02T12:47:45.944Z,2.50
2018-03-02T12:50:16.127Z,2.50
2018-03-02T12:52:45.536Z,2.50
2018-03-02T12:55:14.970Z,2.60
2018-03-02T12:57:44.556Z,2.60
2018-03-02T13:00:14.092Z,2.60
2018-03-02T13:02:43.540Z,2.60
2018-03-02T13:05:12.270Z,2.70
2018-03-02T13:07:41.709Z,2.70
2018-03-02T13:10:11.127Z,2.70
2018-03-02T13:12:40.541Z,2.80
2018-03-02T13:15:09.955Z,2.80
2018-03-02T13:17:39.382Z,2.90
2018-03-02T13:20:08.179Z,2.90
2018-03-02T13:22:45.593Z,2.90
2018-03-02T13:25:14.712Z,2.90
2018-03-02T13:27:55.769Z,2.90
2018-03-02T13:30:24.916Z,2.80
2018-03-02T13:33:05.619Z,2.90
2018-03-02T13:35:34.745Z,2.80
2018-03-02T13:38:03.816Z,2.90
2018-03-02T13:40:44.371Z,2.90
2018-03-02T13:43:13.500Z,2.90
2018-03-02T13:45:42.921Z,2.90
2018-03-02T13:51:12.983Z,2.90
2018-03-02T13:53:42.389Z,2.90
2018-03-02T13:56:22.984Z,2.90
2018-03-02T13:58:51.791Z,3.00
2018-03-02T14:01:21.201Z,3.00
2018-03-02T14:04:01.658Z,3.00
2018-03-02T14:06:30.790Z,3.00
2018-03-02T14:09:00.970Z,3.00
2018-03-02T14:11:30.092Z,3.00
2018-03-02T14:13:59.521Z,3.00
2018-03-02T14:16:28.588Z,3.10
2018-03-02T14:18:58.137Z,3.10
2018-03-02T14:21:27.570Z,3.10
2018-03-02T14:23:57.000Z,3.10
2018-03-02T14:26:26.451Z,3.20
2018-03-02T14:28:55.868Z,3.20
2018-03-02T14:31:25.299Z,3.20
2018-03-02T14:33:54.718Z,3.30
2018-03-02T14:36:24.148Z,3.30
2018-03-02T14:38:53.599Z,3.30
2018-03-02T14:41:23.017Z,3.30
2018-03-02T14:43:53.309Z,3.30
2018-03-02T14:46:22.525Z,3.30
2018-03-02T14:48:51.972Z,3.30
2018-03-02T14:51:21.097Z,3.30
2018-03-02T14:53:50.502Z,3.30
2018-03-02T14:56:19.913Z,3.30
2018-03-02T14:58:49.312Z,3.30
2018-03-02T15:01:18.204Z,3.30
2018-03-02T15:03:47.616Z,3.30
2018-03-02T15:06:17.027Z,3.30
2018-03-02T15:08:46.457Z,3.30
2018-03-02T15:11:16.329Z,3.30
2018-03-02T15:13:45.748Z,3.20
2018-03-02T15:16:14.828Z,3.20
2018-03-02T15:18:44.682Z,3.10
2018-03-02T15:21:14.094Z,3.10
2018-03-02T15:23:43.516Z,3.10
2018-03-02T15:26:12.604Z,3.10
2018-03-02T15:28:42.911Z,3.00
2018-03-02T15:31:12.851Z,3.00
2018-03-02T15:33:42.716Z,3.00
2018-03-02T15:36:12.141Z,3.00
2018-03-02T15:38:41.613Z,2.90
2018-03-02T15:41:11.796Z,2.90
2018-03-02T15:43:41.306Z,2.90
2018-03-02T15:46:10.401Z,2.90
2018-03-02T15:48:39.547Z,2.90
2018-03-02T15:51:08.773Z,2.90
2018-03-02T15:53:39.715Z,2.80
2018-03-02T15:56:09.143Z,2.90
2018-03-02T15:58:39.331Z,2.80
2018-03-02T16:01:08.757Z,2.80
2018-03-02T16:03:38.164Z,2.80
2018-03-02T16:06:07.667Z,2.80
2018-03-02T16:08:36.801Z,2.80
2018-03-02T16:11:06.004Z,2.70
2018-03-02T16:13:35.118Z,2.70
2018-03-02T16:16:04.555Z,2.70
2018-03-02T16:18:33.958Z,2.70
2018-03-02T16:21:03.360Z,2.60
2018-03-02T16:23:32.520Z,2.60
2018-03-02T16:26:02.721Z,2.50
2018-03-02T16:28:32.040Z,2.50
2018-03-02T16:31:01.990Z,2.50
2018-03-02T16:33:32.175Z,2.50
2018-03-02T16:36:01.328Z,2.50
2018-03-02T16:38:30.800Z,2.50
2018-03-02T16:40:59.870Z,2.40
2018-03-02T16:43:28.992Z,2.40
2018-03-02T16:45:58.090Z,2.40
2018-03-02T16:48:27.303Z,2.30
2018-03-02T16:50:57.371Z,2.30
2018-03-02T16:53:28.168Z,2.30
2018-03-02T16:55:58.377Z,2.20
2018-03-02T16:58:27.631Z,2.20
2018-03-02T17:00:56.920Z,2.20
2018-03-02T17:03:26.379Z,2.20
2018-03-02T17:05:55.627Z,2.20
2018-03-02T17:08:25.969Z,2.10
2018-03-02T17:10:55.460Z,2.10
2018-03-02T17:13:24.573Z,2.10
2018-03-02T17:15:54.858Z,2.10
2018-03-02T17:18:25.089Z,2.10
2018-03-02T17:20:54.651Z,2.00
2018-03-02T17:23:24.174Z,2.00
2018-03-02T17:25:53.895Z,2.00
2018-03-02T17:28:23.189Z,2.00
2018-03-02T17:30:52.350Z,2.00
2018-03-02T17:33:22.613Z,1.90
2018-03-02T17:35:53.638Z,1.90
2018-03-02T17:38:23.206Z,1.90
2018-03-02T17:40:52.448Z,1.90
2018-03-02T17:43:22.034Z,1.90
2018-03-02T17:45:51.461Z,1.80
2018-03-02T17:48:20.890Z,1.80
2018-03-02T17:50:50.084Z,1.80
2018-03-02T17:53:19.702Z,1.80
2018-03-02T17:55:48.782Z,1.80
2018-03-02T17:58:18.221Z,1.80
2018-03-02T18:00:47.658Z,1.70
2018-03-02T18:03:17.088Z,1.70
2018-03-02T18:05:46.277Z,1.70
2018-03-02T18:08:15.881Z,1.70
2018-03-02T18:10:45.283Z,1.70
2018-03-02T18:13:14.679Z,1.70
2018-03-02T18:15:43.844Z,1.80
2018-03-02T18:18:13.746Z,1.80
2018-03-02T18:20:42.852Z,1.80
2018-03-02T18:23:12.269Z,1.80
2018-03-02T18:25:41.413Z,1.80
2018-03-02T18:28:10.586Z,1.80
2018-03-02T18:30:39.995Z,1.90
2018-03-02T18:33:09.095Z,1.90
2018-03-02T18:35:39.474Z,1.90
2018-03-02T18:38:08.897Z,1.80
2018-03-02T18:40:38.303Z,1.90
2018-03-02T18:43:07.752Z,1.90
2018-03-02T18:45:37.936Z,1.90
2018-03-02T18:48:07.372Z,1.90
2018-03-02T18:50:36.794Z,1.90
2018-03-02T18:53:05.941Z,1.90
2018-03-02T18:55:35.366Z,1.90
2018-03-02T18:58:05.075Z,1.90
2018-03-02T19:00:34.490Z,1.90
2018-03-02T19:03:03.638Z,1.90
2018-03-02T19:05:33.090Z,1.90
2018-03-02T19:08:02.210Z,1.90
2018-03-02T19:10:32.448Z,1.90
2018-03-02T19:13:01.612Z,1.80
2018-03-02T19:15:30.737Z,1.90
2018-03-02T19:18:00.006Z,1.80
2018-03-02T19:20:29.508Z,1.80
2018-03-02T19:22:58.790Z,1.80
2018-03-02T19:25:28.207Z,1.80
2018-03-02T19:27:57.404Z,1.80
2018-03-02T19:30:26.843Z,1.80
2018-03-02T19:32:57.648Z,1.90
2018-03-02T19:35:27.073Z,1.80
2018-03-02T19:37:56.770Z,1.80
2018-03-02T19:40:26.237Z,1.70
2018-03-02T19:42:55.497Z,1.80
2018-03-02T19:45:25.112Z,1.80
2018-03-02T19:47:54.578Z,1.80
2018-03-02T19:50:24.783Z,1.80
2018-03-02T19:52:54.293Z,1.70
2018-03-02T19:55:23.742Z,1.70
2018-03-02T19:57:54.093Z,1.70
2018-03-02T20:00:24.295Z,1.70
2018-03-02T20:02:53.105Z,1.70
2018-03-02T20:05:22.594Z,1.70
2018-03-02T20:07:52.501Z,1.70
2018-03-02T20:10:21.944Z,1.70
2018-03-02T20:12:51.459Z,1.70
2018-03-02T20:15:20.529Z,1.70
2018-03-02T20:17:49.937Z,1.70
2018-03-02T20:20:19.403Z,1.70
2018-03-02T20:22:48.826Z,1.70
2018-03-02T20:25:18.078Z,1.70
2018-03-02T20:27:47.964Z,1.70
2018-03-02T20:30:17.135Z,1.70
2018-03-02T20:32:46.280Z,1.70
2018-03-02T20:35:15.762Z,1.70
2018-03-02T20:37:46.104Z,1.70
2018-03-02T20:40:15.336Z,1.70
2018-03-02T20:42:44.763Z,1.70
2018-03-02T20:45:14.712Z,1.80
2018-03-02T20:47:44.912Z,1.70
2018-03-02T20:50:15.617Z,1.70
2018-03-02T20:52:44.748Z,1.70
2018-03-02T20:55:14.208Z,1.80
2018-03-02T20:57:43.365Z,1.70
2018-03-02T21:00:12.876Z,1.70
2018-03-02T21:02:42.020Z,1.80
2018-03-02T21:05:11.444Z,1.80
2018-03-02T21:07:40.667Z,1.70
2018-03-02T21:10:10.559Z,1.80
2018-03-02T21:12:39.986Z,1.70
2018-03-02T21:15:09.404Z,1.70
2018-03-02T21:17:38.910Z,1.80
2018-03-02T21:20:08.058Z,1.80
2018-03-02T21:22:38.346Z,1.80
2018-03-02T21:25:07.753Z,1.70
2018-03-02T21:27:37.177Z,1.80
2018-03-02T21:30:06.257Z,1.80
2018-03-02T21:32:35.686Z,1.80
2018-03-02T21:35:05.617Z,1.80
2018-03-02T21:37:35.353Z,1.80
2018-03-02T21:40:05.267Z,1.70
2018-03-02T21:42:34.701Z,1.70
2018-03-02T21:45:04.121Z,1.70
2018-03-02T21:47:33.217Z,1.70
2018-03-02T21:50:02.655Z,1.70
2018-03-02T21:52:32.869Z,1.70
2018-03-02T21:55:02.321Z,1.60
2018-03-02T21:57:32.502Z,1.60
2018-03-02T22:00:01.983Z,1.60
2018-03-02T22:02:31.785Z,1.60
2018-03-02T22:05:02.047Z,1.60
2018-03-02T22:07:31.675Z,1.60
2018-03-02T22:10:01.102Z,1.60
2018-03-02T22:12:30.104Z,1.50
2018-03-02T22:14:59.556Z,1.50
2018-03-02T22:17:29.012Z,1.50
2018-03-02T22:19:58.450Z,1.50
2018-03-02T22:22:27.898Z,1.50
2018-03-02T22:24:57.360Z,1.50
2018-03-02T22:27:26.876Z,1.40
2018-03-02T22:29:56.371Z,1.40
2018-03-02T22:32:27.422Z,1.30
2018-03-02T22:34:56.850Z,1.30
2018-03-02T22:37:26.284Z,1.30
2018-03-02T22:39:55.728Z,1.30
2018-03-02T22:42:25.159Z,1.30
2018-03-02T22:44:54.571Z,1.20
2018-03-02T22:47:23.673Z,1.20
2018-03-02T22:49:53.080Z,1.20
2018-03-02T22:52:22.491Z,1.10
2018-03-02T22:54:51.921Z,1.10
2018-03-02T22:57:21.321Z,1.10
2018-03-02T22:59:50.728Z,1.10
2018-03-02T23:02:20.126Z,1.00
2018-03-02T23:04:49.214Z,1.00
2018-03-02T23:07:19.379Z,0.90
2018-03-02T23:09:48.780Z,1.00
2018-03-02T23:12:18.224Z,0.90
2018-03-02T23:14:47.629Z,0.90
2018-03-02T23:17:17.061Z,0.90
2018-03-02T23:19:46.464Z,0.80
2018-03-02T23:22:15.896Z,0.80
2018-03-02T23:24:45.299Z,0.80
2018-03-02T23:27:14.758Z,0.80
2018-03-02T23:29:44.947Z,0.80
2018-03-02T23:32:14.364Z,0.80
2018-03-02T23:34:43.775Z,0.80
2018-03-02T23:37:13.199Z,0.70
2018-03-02T23:39:42.596Z,0.70
2018-03-02T23:42:12.022Z,0.70
2018-03-02T23:44:41.441Z,0.70
2018-03-02T23:47:10.535Z,0.70
2018-03-02T23:49:39.958Z,0.60
2018-03-02T23:52:09.357Z,0.60
2018-03-02T23:54:38.772Z,0.60
2018-03-02T23:57:08.184Z,0.50
2018-03-02T23:59:37.599Z,0.50
